| time (UTC) | temp F | wind direction | speed MPH | gust MPH | rain 1hr in | rain 24hr in | rain mn in | humidity % | barometer mb |
| 20260906234517 | 55 | 338 | 2.0 | 5.0 | 0.08 | 0.16 | 0.16 | 100 | 1005.4 |
| 20260906234017 | 55 | 315 | 2.0 | 3.0 | 0.07 | 0.15 | 0.15 | 100 | 1005.3 |
| 20260906233517 | 55 | 338 | 3.0 | 5.0 | 0.07 | 0.14 | 0.14 | 100 | 1005.4 |
| 20260906233016 | 55 | 338 | 2.0 | 5.0 | 0.06 | 0.13 | 0.13 | 100 | 1005.3 |
| 20260906232517 | 55 | 338 | 3.0 | 4.0 | 0.06 | 0.13 | 0.13 | 100 | 1005.3 |
| 20260906232017 | 55 | 338 | 2.0 | 4.0 | 0.04 | 0.11 | 0.11 | 100 | 1005.3 |
| 20260906231517 | 55 | 338 | 2.0 | 5.0 | 0.03 | 0.10 | 0.10 | 100 | 1005.3 |
| 20260906231017 | 55 | 338 | 3.0 | 6.0 | 0.02 | 0.09 | 0.09 | 100 | 1005.3 |
| 20260906230517 | 55 | 338 | 2.0 | 3.0 | 0.02 | 0.09 | 0.09 | 100 | 1005.2 |
| 20260906230016 | 55 | 338 | 2.0 | 5.0 | 0.02 | 0.09 | 0.09 | 100 | 1005.2 |
| 20260906225516 | 55 | 338 | 2.0 | 4.0 | 0.02 | 0.09 | 0.09 | 99 | 1005.2 |
| 20260906225016 | 55 | 338 | 2.0 | 5.0 | 0.01 | 0.08 | 0.08 | 99 | 1005.2 |
| 20260906224516 | 55 | 338 | 3.0 | 6.0 | 0.02 | 0.08 | 0.08 | 99 | 1005.2 |
| 20260906224016 | 55 | 338 | 2.0 | 4.0 | 0.02 | 0.08 | 0.08 | 99 | 1005.1 |
| 20260906223516 | 56 | 338 | 3.0 | 6.0 | 0.01 | 0.07 | 0.07 | 99 | 1005.1 |
| 20260906223016 | 56 | 338 | 3.0 | 6.0 | 0.01 | 0.07 | 0.07 | 98 | 1005.1 |
| 20260906222516 | 56 | 338 | 3.0 | 5.0 | 0.01 | 0.08 | 0.07 | 98 | 1005.2 |
| 20260906222016 | 56 | 338 | 3.0 | 10.0 | 0.01 | 0.08 | 0.07 | 98 | 1005.1 |
| 20260906221516 | 56 | 338 | 4.0 | 7.0 | 0.01 | 0.08 | 0.07 | 99 | 1005.1 |
| 20260906221017 | 56 | 338 | 3.0 | 6.0 | 0.01 | 0.08 | 0.07 | 98 | 1005.1 |
| 20260906220516 | 56 | 338 | 3.0 | 4.0 | 0.01 | 0.08 | 0.07 | 99 | 1005.1 |
| 20260906220017 | 56 | 338 | 3.0 | 6.0 | 0.01 | 0.08 | 0.07 | 99 | 1005.1 |
| 20260906215516 | 56 | 338 | 2.0 | 4.0 | 0.01 | 0.08 | 0.07 | 99 | 1005.0 |
| 20260906215016 | 56 | 338 | 3.0 | 6.0 | 0.01 | 0.08 | 0.07 | 98 | 1005.0 |
| 20260906214517 | 56 | 338 | 2.0 | 4.0 | 0.00 | 0.08 | 0.06 | 99 | 1005.0 |
| 20260906214017 | 56 | 338 | 2.0 | 5.0 | 0.00 | 0.08 | 0.06 | 98 | 1004.9 |
| 20260906213517 | 56 | 338 | 3.0 | 5.0 | 0.00 | 0.08 | 0.06 | 98 | 1004.9 |
| 20260906213016 | 56 | 338 | 2.0 | 4.0 | 0.01 | 0.09 | 0.06 | 98 | 1004.9 |
| 20260906212516 | 56 | 338 | 2.0 | 5.0 | 0.01 | 0.09 | 0.06 | 98 | 1004.9 |
| 20260906212016 | 56 | 338 | 2.0 | 5.0 | 0.01 | 0.09 | 0.06 | 98 | 1004.8 |
| 20260906211517 | 56 | 338 | 3.0 | 7.0 | 0.01 | 0.09 | 0.06 | 98 | 1004.8 |
| 20260906211017 | 57 | 338 | 3.0 | 6.0 | 0.01 | 0.10 | 0.06 | 98 | 1004.8 |
| 20260906210516 | 57 | 338 | 3.0 | 4.0 | 0.01 | 0.10 | 0.06 | 98 | 1004.8 |
| 20260906210016 | 57 | 338 | 3.0 | 7.0 | 0.01 | 0.10 | 0.06 | 97 | 1004.8 |
| 20260906205516 | 57 | 338 | 3.0 | 8.0 | 0.01 | 0.10 | 0.06 | 97 | 1004.9 |
| 20260906205016 | 57 | 338 | 3.0 | 5.0 | 0.01 | 0.10 | 0.06 | 98 | 1004.8 |
| 20260906204516 | 57 | 0 | 2.0 | 4.0 | 0.01 | 0.10 | 0.06 | 98 | 1004.8 |
| 20260906204017 | 57 | 315 | 3.0 | 6.0 | 0.01 | 0.10 | 0.06 | 98 | 1004.7 |
| 20260906203516 | 57 | 338 | 3.0 | 6.0 | 0.02 | 0.10 | 0.06 | 98 | 1004.7 |
| 20260906203017 | 57 | 0 | 3.0 | 5.0 | 0.02 | 0.09 | 0.06 | 98 | 1004.6 |
| 20260906202516 | 57 | 338 | 2.0 | 4.0 | 0.02 | 0.09 | 0.06 | 98 | 1004.5 |
| 20260906202016 | 57 | 338 | 2.0 | 4.0 | 0.02 | 0.09 | 0.06 | 98 | 1004.6 |
| 20260906201517 | 57 | 338 | 1.0 | 2.0 | 0.02 | 0.09 | 0.06 | 99 | 1004.5 |
| 20260906201016 | 57 | 338 | 1.0 | 3.0 | 0.03 | 0.09 | 0.06 | 99 | 1004.6 |
| 20260906200517 | 57 | 338 | 2.0 | 7.0 | 0.04 | 0.09 | 0.06 | 99 | 1004.5 |
| 20260906200016 | 57 | 338 | 2.0 | 5.0 | 0.04 | 0.09 | 0.06 | 99 | 1004.5 |
| 20260906195517 | 57 | 338 | 2.0 | 3.0 | 0.05 | 0.09 | 0.06 | 99 | 1004.5 |
| 20260906195016 | 57 | 338 | 3.0 | 5.0 | 0.05 | 0.09 | 0.06 | 99 | 1004.4 |
| 20260906194517 | 57 | 338 | 2.0 | 6.0 | 0.06 | 0.09 | 0.06 | 99 | 1004.4 |
| 20260906194016 | 57 | 338 | 2.0 | 3.0 | 0.06 | 0.09 | 0.06 | 99 | 1004.4 |
| 20260906193516 | 57 | 338 | 2.0 | 3.0 | 0.05 | 0.09 | 0.05 | 99 | 1004.3 |
| 20260906193017 | 57 | 338 | 2.0 | 3.0 | 0.04 | 0.08 | 0.04 | 99 | 1004.3 |
| 20260906192517 | 57 | 338 | 2.0 | 5.0 | 0.04 | 0.08 | 0.04 | 99 | 1004.3 |
| 20260906192016 | 57 | 338 | 3.0 | 7.0 | 0.03 | 0.07 | 0.03 | 99 | 1004.2 |
| 20260906191516 | 57 | 338 | 3.0 | 5.0 | 0.03 | 0.07 | 0.03 | 98 | 1004.3 |
| 20260906191016 | 57 | 338 | 2.0 | 3.0 | 0.02 | 0.06 | 0.02 | 98 | 1004.2 |
| 20260906190516 | 57 | 338 | 3.0 | 6.0 | 0.02 | 0.06 | 0.02 | 98 | 1004.2 |
| 20260906190016 | 57 | 338 | 3.0 | 4.0 | 0.02 | 0.06 | 0.02 | 98 | 1004.2 |
| 20260906185516 | 58 | 338 | 2.0 | 2.0 | 0.01 | 0.05 | 0.01 | 97 | 1004.2 |
| 20260906185016 | 58 | 338 | 2.0 | 4.0 | 0.01 | 0.05 | 0.01 | 97 | 1004.2 |
| 20260906184516 | 58 | 338 | 2.0 | 5.0 | 0.00 | 0.04 | 0.00 | 96 | 1004.2 |
| 20260906184016 | 58 | 338 | 3.0 | 10.0 | 0.00 | 0.04 | 0.00 | 96 | 1004.2 |
| 20260906183516 | 58 | 338 | 2.0 | 5.0 | 0.00 | 0.04 | 0.00 | 95 | 1004.2 |
| 20260906183016 | 58 | 338 | 2.0 | 4.0 | 0.00 | 0.04 | 0.00 | 95 | 1004.1 |
| 20260906182516 | 58 | 338 | 2.0 | 5.0 | 0.00 | 0.04 | 0.00 | 94 | 1004.1 |
| 20260906182016 | 58 | 338 | 3.0 | 7.0 | 0.00 | 0.04 | 0.00 | 94 | 1004.1 |
| 20260906181517 | 59 | 0 | 4.0 | 9.0 | 0.00 | 0.04 | 0.00 | 93 | 1004.1 |
| 20260906181016 | 59 | 0 | 3.0 | 5.0 | 0.00 | 0.04 | 0.00 | 93 | 1004.2 |
| 20260906180516 | 59 | 338 | 3.0 | 6.0 | 0.00 | 0.04 | 0.00 | 93 | 1004.2 |
| 20260906180016 | 59 | 338 | 4.0 | 9.0 | 0.00 | 0.04 | 0.00 | 92 | 1004.2 |
| 20260906175516 | 59 | 0 | 4.0 | 6.0 | 0.00 | 0.04 | 0.00 | 92 | 1004.1 |
| 20260906175017 | 59 | 338 | 3.0 | 5.0 | 0.00 | 0.04 | 0.00 | 93 | 1004.1 |
| 20260906174517 | 59 | 338 | 4.0 | 8.0 | 0.00 | 0.04 | 0.00 | 93 | 1004.2 |
| 20260906174016 | 59 | 338 | 3.0 | 8.0 | 0.00 | 0.04 | 0.00 | 92 | 1004.1 |
| 20260906173516 | 59 | 338 | 3.0 | 7.0 | 0.00 | 0.04 | 0.00 | 92 | 1004.2 |
| 20260906173016 | 59 | 0 | 4.0 | 8.0 | 0.00 | 0.04 | 0.00 | 91 | 1004.2 |
| 20260906172516 | 59 | 338 | 4.0 | 6.0 | 0.00 | 0.04 | 0.00 | 91 | 1004.2 |
| 20260906172016 | 59 | 0 | 4.0 | 7.0 | 0.00 | 0.04 | 0.00 | 91 | 1004.3 |
| 20260906171516 | 59 | 0 | 3.0 | 6.0 | 0.00 | 0.05 | 0.00 | 91 | 1004.2 |
| 20260906171016 | 59 | 0 | 4.0 | 6.0 | 0.00 | 0.05 | 0.00 | 91 | 1004.2 |
| 20260906170516 | 59 | 0 | 5.0 | 9.0 | 0.00 | 0.05 | 0.00 | 91 | 1004.2 |
| 20260906170017 | 59 | 0 | 5.0 | 8.0 | 0.00 | 0.05 | 0.00 | 91 | 1004.2 |
| 20260906165516 | 59 | 338 | 5.0 | 7.0 | 0.00 | 0.05 | 0.00 | 92 | 1004.2 |
| 20260906165017 | 59 | 338 | 3.0 | 6.0 | 0.00 | 0.05 | 0.00 | 93 | 1004.2 |
| 20260906164516 | 59 | 338 | 3.0 | 7.0 | 0.00 | 0.05 | 0.00 | 93 | 1004.2 |
| 20260906164017 | 59 | 23 | 3.0 | 5.0 | 0.00 | 0.05 | 0.00 | 94 | 1004.2 |
| 20260906163516 | 59 | 23 | 2.0 | 4.0 | 0.00 | 0.05 | 0.00 | 95 | 1004.3 |
| 20260906163017 | 59 | 23 | 3.0 | 7.0 | 0.00 | 0.05 | 0.00 | 93 | 1004.4 |
| 20260906162516 | 59 | 0 | 4.0 | 7.0 | 0.00 | 0.05 | 0.00 | 92 | 1004.3 |
| 20260906162016 | 60 | 0 | 4.0 | 8.0 | 0.00 | 0.05 | 0.00 | 91 | 1004.3 |
| 20260906161516 | 61 | 338 | 5.0 | 10.0 | 0.00 | 0.05 | 0.00 | 89 | 1004.3 |
| 20260906161016 | 61 | 338 | 5.0 | 8.0 | 0.00 | 0.05 | 0.00 | 87 | 1004.2 |
| 20260906160516 | 61 | 338 | 5.0 | 9.0 | 0.00 | 0.05 | 0.00 | 86 | 1004.2 |
| 20260906160016 | 61 | 0 | 3.0 | 6.0 | 0.00 | 0.05 | 0.00 | 89 | 1004.2 |
| 20260906155516 | 61 | 338 | 5.0 | 7.0 | 0.00 | 0.05 | 0.00 | 88 | 1004.2 |
| 20260906155016 | 61 | 338 | 4.0 | 7.0 | 0.00 | 0.05 | 0.00 | 90 | 1004.2 |
| 20260906154516 | 60 | 315 | 5.0 | 10.0 | 0.00 | 0.05 | 0.00 | 89 | 1004.2 |
| 20260906154016 | 61 | 0 | 5.0 | 8.0 | 0.00 | 0.05 | 0.00 | 89 | 1004.2 |
| 20260906153516 | 60 | 338 | 6.0 | 9.0 | 0.00 | 0.05 | 0.00 | 88 | 1004.2 |
| 20260906153016 | 60 | 338 | 5.0 | 10.0 | 0.00 | 0.05 | 0.00 | 89 | 1004.3 |
| 20260906152516 | 60 | 338 | 3.0 | 6.0 | 0.00 | 0.05 | 0.00 | 90 | 1004.4 |
| 20260906152047 | 60 | 0 | 3.0 | 5.0 | 0.00 | 0.05 | 0.00 | 90 | 1004.4 |
| 20260906151516 | 60 | 338 | 3.0 | 6.0 | 0.00 | 0.05 | 0.00 | 89 | 1004.4 |
| 20260906151016 | 60 | 0 | 5.0 | 8.0 | 0.00 | 0.05 | 0.00 | 88 | 1004.4 |
| 20260906150516 | 61 | 338 | 6.0 | 11.0 | 0.00 | 0.05 | 0.00 | 87 | 1004.4 |
| 20260906150016 | 61 | 0 | 4.0 | 7.0 | 0.00 | 0.05 | 0.00 | 87 | 1004.4 |
| 20260906145517 | 61 | 0 | 4.0 | 8.0 | 0.00 | 0.05 | 0.00 | 89 | 1004.3 |
| 20260906145016 | 60 | 0 | 4.0 | 8.0 | 0.00 | 0.05 | 0.00 | 89 | 1004.3 |
| 20260906144516 | 60 | 0 | 5.0 | 11.0 | 0.00 | 0.05 | 0.00 | 89 | 1004.4 |
| 20260906144016 | 60 | 0 | 5.0 | 9.0 | 0.00 | 0.05 | 0.00 | 88 | 1004.4 |
| 20260906143516 | 60 | 0 | 5.0 | 8.0 | 0.00 | 0.05 | 0.00 | 88 | 1004.5 |
| 20260906143016 | 60 | 338 | 5.0 | 10.0 | 0.00 | 0.05 | 0.00 | 88 | 1004.6 |
| 20260906142516 | 60 | 0 | 4.0 | 7.0 | 0.00 | 0.05 | 0.00 | 89 | 1004.5 |
| 20260906142017 | 60 | 338 | 5.0 | 8.0 | 0.00 | 0.05 | 0.00 | 88 | 1004.6 |
| 20260906141516 | 60 | 0 | 3.0 | 9.0 | 0.00 | 0.05 | 0.00 | 90 | 1004.5 |
| 20260906141016 | 60 | 338 | 5.0 | 8.0 | 0.00 | 0.05 | 0.00 | 89 | 1004.6 |
| 20260906140516 | 60 | 338 | 5.0 | 9.0 | 0.00 | 0.05 | 0.00 | 88 | 1004.6 |
| 20260906140016 | 60 | 338 | 4.0 | 8.0 | 0.00 | 0.05 | 0.00 | 91 | 1004.7 |
| 20260906135516 | 60 | 338 | 5.0 | 9.0 | 0.00 | 0.05 | 0.00 | 90 | 1004.7 |
| 20260906135016 | 60 | 338 | 4.0 | 8.0 | 0.00 | 0.05 | 0.00 | 89 | 1004.7 |
| 20260906134517 | 59 | 0 | 5.0 | 11.0 | 0.00 | 0.05 | 0.00 | 90 | 1004.7 |
| 20260906134016 | 59 | 338 | 5.0 | 10.0 | 0.00 | 0.05 | 0.00 | 90 | 1004.7 |
| 20260906133516 | 59 | 338 | 5.0 | 9.0 | 0.00 | 0.05 | 0.00 | 90 | 1004.5 |
| 20260906133016 | 59 | 338 | 5.0 | 10.0 | 0.00 | 0.05 | 0.00 | 90 | 1004.4 |
| 20260906132516 | 59 | 0 | 4.0 | 10.0 | 0.00 | 0.05 | 0.00 | 91 | 1004.5 |
| 20260906132016 | 59 | 0 | 4.0 | 8.0 | 0.00 | 0.06 | 0.00 | 91 | 1004.4 |
| 20260906131516 | 59 | 338 | 5.0 | 9.0 | 0.00 | 0.06 | 0.00 | 91 | 1004.4 |
| 20260906131017 | 59 | 0 | 4.0 | 7.0 | 0.00 | 0.06 | 0.00 | 91 | 1004.3 |
| 20260906130516 | 59 | 338 | 5.0 | 9.0 | 0.00 | 0.06 | 0.00 | 91 | 1004.4 |
| 20260906130016 | 59 | 338 | 4.0 | 7.0 | 0.00 | 0.06 | 0.00 | 92 | 1004.4 |
| 20260906125516 | 59 | 338 | 4.0 | 7.0 | 0.00 | 0.06 | 0.00 | 92 | 1004.3 |
| 20260906125016 | 59 | 338 | 4.0 | 9.0 | 0.00 | 0.06 | 0.00 | 92 | 1004.4 |
| 20260906124516 | 59 | 338 | 4.0 | 7.0 | 0.00 | 0.06 | 0.00 | 92 | 1004.4 |
| 20260906124016 | 58 | 0 | 4.0 | 8.0 | 0.00 | 0.06 | 0.00 | 93 | 1004.5 |
| 20260906123517 | 58 | 338 | 4.0 | 8.0 | 0.00 | 0.06 | 0.00 | 93 | 1004.4 |
| 20260906123016 | 58 | 338 | 4.0 | 8.0 | 0.00 | 0.06 | 0.00 | 93 | 1004.4 |
| 20260906122516 | 58 | 338 | 4.0 | 6.0 | 0.00 | 0.06 | 0.00 | 93 | 1004.4 |
| 20260906122016 | 58 | 338 | 4.0 | 7.0 | 0.00 | 0.06 | 0.00 | 93 | 1004.5 |
| 20260906121516 | 57 | 338 | 5.0 | 10.0 | 0.00 | 0.06 | 0.00 | 93 | 1004.4 |
| 20260906121016 | 57 | 338 | 4.0 | 6.0 | 0.00 | 0.06 | 0.00 | 94 | 1004.5 |
| 20260906120516 | 57 | 338 | 4.0 | 7.0 | 0.00 | 0.06 | 0.00 | 94 | 1004.4 |
| 20260906120017 | 57 | 338 | 4.0 | 7.0 | 0.00 | 0.06 | 0.00 | 94 | 1004.3 |
| 20260906115516 | 57 | 0 | 4.0 | 8.0 | 0.00 | 0.06 | 0.00 | 94 | 1004.4 |
| 20260906115016 | 57 | 0 | 3.0 | 9.0 | 0.00 | 0.06 | 0.00 | 95 | 1004.4 |
| 20260906114516 | 57 | 338 | 5.0 | 9.0 | 0.00 | 0.06 | 0.00 | 94 | 1004.4 |
| 20260906114016 | 57 | 338 | 3.0 | 6.0 | 0.00 | 0.06 | 0.00 | 95 | 1004.5 |
| 20260906113516 | 57 | 315 | 4.0 | 10.0 | 0.00 | 0.06 | 0.00 | 95 | 1004.4 |
| 20260906113016 | 57 | 338 | 3.0 | 7.0 | 0.00 | 0.06 | 0.00 | 95 | 1004.4 |
| 20260906112517 | 56 | 338 | 4.0 | 7.0 | 0.00 | 0.06 | 0.00 | 95 | 1004.4 |
| 20260906112016 | 56 | 0 | 5.0 | 11.0 | 0.00 | 0.06 | 0.00 | 95 | 1004.4 |
| 20260906111516 | 56 | 338 | 4.0 | 7.0 | 0.00 | 0.06 | 0.00 | 96 | 1004.4 |
| 20260906111016 | 56 | 338 | 4.0 | 9.0 | 0.00 | 0.06 | 0.00 | 96 | 1004.2 |
| 20260906110516 | 56 | 338 | 4.0 | 6.0 | 0.00 | 0.06 | 0.00 | 96 | 1004.2 |
| 20260906110016 | 56 | 338 | 4.0 | 7.0 | 0.00 | 0.06 | 0.00 | 96 | 1004.2 |
| 20260906105516 | 56 | 338 | 4.0 | 6.0 | 0.00 | 0.06 | 0.00 | 97 | 1004.2 |
| 20260906105017 | 56 | 338 | 4.0 | 8.0 | 0.00 | 0.06 | 0.00 | 96 | 1004.1 |
| 20260906104516 | 55 | 338 | 4.0 | 6.0 | 0.00 | 0.07 | 0.00 | 97 | 1004.1 |
| 20260906104016 | 55 | 338 | 4.0 | 8.0 | 0.00 | 0.07 | 0.00 | 97 | 1004.0 |
| 20260906103516 | 55 | 338 | 4.0 | 9.0 | 0.00 | 0.07 | 0.00 | 97 | 1004.0 |
| 20260906103016 | 55 | 338 | 4.0 | 8.0 | 0.00 | 0.07 | 0.00 | 97 | 1004.0 |
| 20260906102516 | 55 | 0 | 4.0 | 7.0 | 0.00 | 0.07 | 0.00 | 97 | 1004.0 |
| 20260906102016 | 55 | 338 | 3.0 | 7.0 | 0.00 | 0.08 | 0.00 | 97 | 1004.0 |
| 20260906101516 | 55 | 0 | 3.0 | 7.0 | 0.00 | 0.08 | 0.00 | 97 | 1004.0 |
| 20260906101016 | 55 | 338 | 4.0 | 8.0 | 0.00 | 0.08 | 0.00 | 97 | 1003.9 |
| 20260906100516 | 55 | 338 | 4.0 | 11.0 | 0.00 | 0.08 | 0.00 | 97 | 1004.0 |
| 20260906100016 | 55 | 0 | 4.0 | 6.0 | 0.00 | 0.08 | 0.00 | 97 | 1003.9 |
| 20260906095516 | 55 | 338 | 4.0 | 7.0 | 0.00 | 0.08 | 0.00 | 97 | 1003.9 |
| 20260906095017 | 55 | 338 | 3.0 | 6.0 | 0.00 | 0.08 | 0.00 | 97 | 1003.8 |
| 20260906094516 | 55 | 0 | 3.0 | 6.0 | 0.00 | 0.08 | 0.00 | 97 | 1003.8 |
| 20260906094017 | 55 | 338 | 4.0 | 7.0 | 0.00 | 0.08 | 0.00 | 97 | 1003.7 |
| 20260906093517 | 55 | 338 | 4.0 | 5.0 | 0.00 | 0.08 | 0.00 | 97 | 1003.6 |
| 20260906093016 | 55 | 338 | 4.0 | 8.0 | 0.00 | 0.08 | 0.00 | 97 | 1003.5 |
| 20260906092516 | 55 | 338 | 4.0 | 6.0 | 0.00 | 0.08 | 0.00 | 97 | 1003.5 |
| 20260906092016 | 55 | 338 | 4.0 | 7.0 | 0.00 | 0.08 | 0.00 | 97 | 1003.5 |
| 20260906091516 | 55 | 0 | 4.0 | 9.0 | 0.00 | 0.08 | 0.00 | 97 | 1003.5 |
| 20260906091016 | 56 | 338 | 4.0 | 9.0 | 0.00 | 0.08 | 0.00 | 97 | 1003.5 |
| 20260906090517 | 56 | 338 | 3.0 | 6.0 | 0.00 | 0.08 | 0.00 | 97 | 1003.5 |
| 20260906090016 | 56 | 338 | 4.0 | 9.0 | 0.00 | 0.08 | 0.00 | 97 | 1003.5 |
| 20260906085516 | 56 | 338 | 5.0 | 9.0 | 0.00 | 0.08 | 0.00 | 97 | 1003.5 |
| 20260906085016 | 56 | 338 | 4.0 | 7.0 | 0.00 | 0.08 | 0.00 | 97 | 1003.3 |
| 20260906084516 | 56 | 338 | 4.0 | 9.0 | 0.00 | 0.08 | 0.00 | 97 | 1003.4 |
| 20260906084016 | 56 | 338 | 4.0 | 10.0 | 0.00 | 0.08 | 0.00 | 97 | 1003.4 |
| 20260906083516 | 56 | 0 | 4.0 | 8.0 | 0.00 | 0.08 | 0.00 | 97 | 1003.4 |
| 20260906083017 | 56 | 0 | 4.0 | 8.0 | 0.00 | 0.08 | 0.00 | 97 | 1003.2 |
| 20260906082516 | 56 | 0 | 4.0 | 8.0 | 0.00 | 0.08 | 0.00 | 97 | 1003.3 |
| 20260906082016 | 56 | 338 | 5.0 | 9.0 | 0.00 | 0.08 | 0.00 | 97 | 1003.4 |
| 20260906081517 | 56 | 338 | 4.0 | 6.0 | 0.00 | 0.08 | 0.00 | 97 | 1003.4 |
| 20260906081016 | 56 | 0 | 4.0 | 9.0 | 0.00 | 0.08 | 0.00 | 98 | 1003.4 |
| 20260906080516 | 56 | 0 | 4.0 | 7.0 | 0.00 | 0.08 | 0.00 | 98 | 1003.4 |
| 20260906080016 | 56 | 0 | 4.0 | 9.0 | 0.00 | 0.08 | 0.00 | 97 | 1003.4 |
| 20260906075517 | 56 | 338 | 4.0 | 8.0 | 0.00 | 0.08 | 0.00 | 98 | 1003.4 |
| 20260906075016 | 56 | 338 | 4.0 | 7.0 | 0.00 | 0.08 | 0.00 | 98 | 1003.5 |
| 20260906074516 | 56 | 338 | 4.0 | 7.0 | 0.00 | 0.09 | 0.00 | 98 | 1003.5 |
| 20260906074016 | 56 | 338 | 5.0 | 10.0 | 0.00 | 0.09 | 0.00 | 98 | 1003.5 |
| 20260906073516 | 56 | 338 | 4.0 | 7.0 | 0.00 | 0.09 | 0.00 | 98 | 1003.5 |
| 20260906073016 | 56 | 338 | 5.0 | 7.0 | 0.00 | 0.09 | 0.00 | 98 | 1003.5 |
| 20260906072516 | 56 | 338 | 5.0 | 11.0 | 0.00 | 0.09 | 0.00 | 98 | 1003.4 |
| 20260906072017 | 56 | 338 | 5.0 | 9.0 | 0.00 | 0.09 | 0.00 | 98 | 1003.4 |
| 20260906071516 | 56 | 338 | 5.0 | 8.0 | 0.00 | 0.09 | 0.00 | 98 | 1003.2 |
| 20260906071016 | 56 | 338 | 5.0 | 9.0 | 0.00 | 0.09 | 0.00 | 99 | 1003.2 |
| 20260906070516 | 56 | 0 | 5.0 | 11.0 | 0.00 | 0.09 | 0.00 | 98 | 1003.2 |
| 20260906070016 | 56 | 0 | 5.0 | 9.0 | 0.00 | 0.09 | 0.00 | 98 | 1003.2 |
| 20260906065516 | 56 | 338 | 5.0 | 9.0 | 0.00 | 0.09 | 0.00 | 98 | 1003.2 |
| 20260906065016 | 56 | 0 | 4.0 | 6.0 | 0.00 | 0.09 | 0.00 | 99 | 1003.2 |
| 20260906064516 | 56 | 0 | 5.0 | 10.0 | 0.00 | 0.09 | 0.00 | 99 | 1003.2 |
| 20260906064016 | 56 | 338 | 4.0 | 8.0 | 0.00 | 0.09 | 0.00 | 99 | 1003.3 |
| 20260906063516 | 56 | 338 | 4.0 | 6.0 | 0.00 | 0.09 | 0.00 | 99 | 1003.2 |
| 20260906063016 | 56 | 338 | 5.0 | 13.0 | 0.00 | 0.09 | 0.00 | 99 | 1003.2 |
| 20260906062516 | 56 | 338 | 4.0 | 10.0 | 0.00 | 0.09 | 0.00 | 99 | 1003.3 |
| 20260906062016 | 56 | 0 | 4.0 | 8.0 | 0.00 | 0.09 | 0.00 | 99 | 1003.3 |
| 20260906061516 | 56 | 0 | 5.0 | 9.0 | 0.00 | 0.09 | 0.00 | 99 | 1003.2 |
| 20260906061017 | 56 | 0 | 5.0 | 9.0 | 0.00 | 0.09 | 0.00 | 99 | 1003.3 |
| 20260906060516 | 56 | 0 | 5.0 | 9.0 | 0.00 | 0.09 | 0.00 | 99 | 1003.2 |
| 20260906060016 | 56 | 0 | 5.0 | 9.0 | 0.00 | 0.09 | 0.00 | 99 | 1003.3 |
| 20260906055516 | 56 | 338 | 5.0 | 9.0 | 0.00 | 0.09 | 0.00 | 99 | 1003.2 |
| 20260906055016 | 56 | 0 | 3.0 | 5.0 | 0.00 | 0.09 | 0.00 | 99 | 1003.1 |
| 20260906054516 | 56 | 0 | 5.0 | 7.0 | 0.00 | 0.09 | 0.00 | 99 | 1003.1 |
| 20260906054016 | 56 | 338 | 4.0 | 7.0 | 0.00 | 0.09 | 0.00 | 100 | 1003.1 |
| 20260906053516 | 56 | 338 | 5.0 | 8.0 | 0.00 | 0.09 | 0.00 | 100 | 1003.1 |
| 20260906053016 | 56 | 338 | 5.0 | 9.0 | 0.00 | 0.09 | 0.00 | 100 | 1003.1 |
| 20260906052516 | 56 | 338 | 4.0 | 8.0 | 0.00 | 0.09 | 0.00 | 100 | 1003.1 |
| 20260906052016 | 56 | 338 | 4.0 | 8.0 | 0.00 | 0.09 | 0.00 | 100 | 1003.1 |
| 20260906051516 | 56 | 0 | 4.0 | 7.0 | 0.00 | 0.09 | 0.00 | 100 | 1003.1 |
| 20260906051016 | 56 | 0 | 4.0 | 8.0 | 0.00 | 0.09 | 0.00 | 100 | 1003.1 |
| 20260906050516 | 56 | 338 | 4.0 | 7.0 | 0.00 | 0.09 | 0.00 | 100 | 1003.2 |
| 20260906050016 | 56 | 0 | 4.0 | 9.0 | 0.00 | 0.09 | 0.00 | 100 | 1003.2 |
| 20260906045516 | 56 | 338 | 5.0 | 11.0 | 0.00 | 0.09 | 0.00 | 100 | 1003.3 |
| 20260906045016 | 56 | 338 | 5.0 | 9.0 | 0.00 | 0.09 | 0.00 | 99 | 1003.2 |
| 20260906044516 | 56 | 0 | 5.0 | 13.0 | 0.00 | 0.09 | 0.00 | 99 | 1003.2 |
| 20260906044016 | 56 | 0 | 5.0 | 8.0 | 0.00 | 0.09 | 0.00 | 99 | 1003.3 |
| 20260906043516 | 56 | 0 | 4.0 | 8.0 | 0.00 | 0.09 | 0.00 | 100 | 1003.3 |
| 20260906043016 | 56 | 338 | 5.0 | 8.0 | 0.00 | 0.09 | 0.00 | 100 | 1003.3 |
| 20260906042516 | 56 | 0 | 4.0 | 10.0 | 0.00 | 0.09 | 0.00 | 100 | 1003.3 |
| 20260906042016 | 56 | 0 | 5.0 | 7.0 | 0.00 | 0.09 | 0.00 | 100 | 1003.3 |
| 20260906041516 | 56 | 338 | 5.0 | 10.0 | 0.00 | 0.09 | 0.00 | 100 | 1003.3 |
| 20260906041016 | 56 | 0 | 4.0 | 8.0 | 0.00 | 0.09 | 0.00 | 100 | 1003.3 |
| 20260906040516 | 56 | 0 | 4.0 | 8.0 | 0.00 | 0.09 | 0.00 | 100 | 1003.3 |
| 20260906040016 | 56 | 338 | 5.0 | 9.0 | 0.00 | 0.09 | 0.00 | 99 | 1003.3 |
| 20260906035516 | 56 | 0 | 4.0 | 8.0 | 0.00 | 0.09 | 0.00 | 99 | 1003.3 |
| 20260906035016 | 57 | 0 | 4.0 | 8.0 | 0.00 | 0.09 | 0.00 | 99 | 1003.5 |
| 20260906034516 | 57 | 338 | 4.0 | 10.0 | 0.00 | 0.09 | 0.00 | 99 | 1003.5 |
| 20260906034016 | 57 | 0 | 5.0 | 10.0 | 0.00 | 0.09 | 0.00 | 99 | 1003.5 |
| 20260906033517 | 57 | 0 | 4.0 | 6.0 | 0.00 | 0.09 | 0.00 | 99 | 1003.5 |
| 20260906033016 | 57 | 338 | 4.0 | 8.0 | 0.00 | 0.09 | 0.00 | 99 | 1003.5 |
| 20260906032516 | 57 | 338 | 5.0 | 9.0 | 0.00 | 0.09 | 0.00 | 98 | 1003.5 |
| 20260906032016 | 57 | 0 | 5.0 | 9.0 | 0.00 | 0.09 | 0.00 | 98 | 1003.3 |
| 20260906031516 | 57 | 338 | 4.0 | 7.0 | 0.00 | 0.09 | 0.00 | 99 | 1003.4 |
| 20260906031016 | 57 | 0 | 6.0 | 13.0 | 0.00 | 0.09 | 0.00 | 98 | 1003.4 |
| 20260906030516 | 57 | 338 | 6.0 | 13.0 | 0.00 | 0.09 | 0.00 | 98 | 1003.4 |
| 20260906030016 | 57 | 338 | 5.0 | 10.0 | 0.00 | 0.09 | 0.00 | 98 | 1003.4 |
| 20260906025517 | 57 | 0 | 6.0 | 11.0 | 0.00 | 0.09 | 0.09 | 98 | 1003.4 |
| 20260906025017 | 57 | 0 | 6.0 | 14.0 | 0.00 | 0.09 | 0.09 | 98 | 1003.4 |
| 20260906024517 | 57 | 338 | 6.0 | 10.0 | 0.00 | 0.09 | 0.09 | 99 | 1003.4 |
| 20260906024017 | 57 | 0 | 5.0 | 10.0 | 0.00 | 0.09 | 0.09 | 99 | 1003.4 |
| 20260906023517 | 57 | 0 | 4.0 | 8.0 | 0.00 | 0.09 | 0.09 | 99 | 1003.3 |
| 20260906023017 | 57 | 0 | 5.0 | 9.0 | 0.00 | 0.09 | 0.09 | 99 | 1003.4 |
| 20260906022517 | 57 | 338 | 4.0 | 7.0 | 0.00 | 0.09 | 0.09 | 99 | 1003.4 |
| 20260906022017 | 57 | 0 | 5.0 | 9.0 | 0.00 | 0.09 | 0.09 | 99 | 1003.4 |
| 20260906021517 | 57 | 0 | 5.0 | 10.0 | 0.00 | 0.09 | 0.09 | 99 | 1003.7 |
| 20260906021017 | 57 | 338 | 5.0 | 10.0 | 0.00 | 0.09 | 0.09 | 99 | 1003.6 |
| 20260906020517 | 57 | 338 | 5.0 | 7.0 | 0.00 | 0.09 | 0.09 | 99 | 1003.7 |
| 20260906020017 | 57 | 338 | 5.0 | 9.0 | 0.00 | 0.09 | 0.09 | 98 | 1003.8 |
| 20260906015517 | 57 | 0 | 6.0 | 9.0 | 0.00 | 0.09 | 0.09 | 98 | 1003.7 |
| 20260906015017 | 57 | 338 | 4.0 | 7.0 | 0.00 | 0.09 | 0.09 | 99 | 1003.8 |
| 20260906014517 | 57 | 338 | 5.0 | 10.0 | 0.00 | 0.09 | 0.09 | 99 | 1003.7 |
| 20260906014017 | 57 | 0 | 5.0 | 8.0 | 0.00 | 0.09 | 0.09 | 99 | 1003.7 |
| 20260906013516 | 57 | 338 | 5.0 | 11.0 | 0.00 | 0.09 | 0.09 | 99 | 1003.8 |
| 20260906013017 | 57 | 338 | 5.0 | 10.0 | 0.00 | 0.09 | 0.09 | 99 | 1003.8 |
| 20260906012517 | 57 | 0 | 6.0 | 12.0 | 0.00 | 0.09 | 0.09 | 99 | 1003.8 |
| 20260906012017 | 57 | 338 | 6.0 | 14.0 | 0.00 | 0.09 | 0.09 | 99 | 1003.8 |
| 20260906011517 | 57 | 0 | 5.0 | 8.0 | 0.00 | 0.09 | 0.09 | 99 | 1003.8 |
| 20260906011017 | 57 | 0 | 6.0 | 12.0 | 0.00 | 0.09 | 0.09 | 99 | 1004.0 |
| 20260906010517 | 57 | 0 | 4.0 | 7.0 | 0.00 | 0.09 | 0.09 | 99 | 1003.8 |
| 20260906010017 | 57 | 0 | 5.0 | 9.0 | 0.00 | 0.09 | 0.09 | 99 | 1003.8 |
| 20260906005517 | 57 | 0 | 5.0 | 9.0 | 0.00 | 0.09 | 0.09 | 99 | 1003.8 |
| 20260906005017 | 57 | 0 | 5.0 | 11.0 | 0.00 | 0.09 | 0.09 | 99 | 1003.9 |
| 20260906004517 | 57 | 338 | 5.0 | 9.0 | 0.00 | 0.09 | 0.09 | 99 | 1003.8 |
| 20260906004017 | 57 | 338 | 6.0 | 10.0 | 0.00 | 0.09 | 0.09 | 99 | 1003.8 |
| 20260906003517 | 57 | 0 | 5.0 | 10.0 | 0.00 | 0.09 | 0.09 | 99 | 1003.8 |
| 20260906003017 | 57 | 0 | 5.0 | 9.0 | 0.00 | 0.09 | 0.09 | 99 | 1003.9 |
| 20260906002517 | 57 | 0 | 5.0 | 12.0 | 0.00 | 0.09 | 0.09 | 99 | 1003.9 |
| 20260906002017 | 57 | 0 | 4.0 | 7.0 | 0.00 | 0.09 | 0.09 | 99 | 1003.9 |
| 20260906001517 | 57 | 0 | 5.0 | 10.0 | 0.00 | 0.09 | 0.09 | 100 | 1003.8 |
| 20260906001016 | 57 | 338 | 5.0 | 9.0 | 0.00 | 0.09 | 0.09 | 100 | 1003.8 |
| 20260906000517 | 57 | 0 | 5.0 | 8.0 | 0.00 | 0.09 | 0.09 | 100 | 1003.8 |
| 20260906000017 | 57 | 0 | 5.0 | 10.0 | 0.00 | 0.09 | 0.09 | 100 | 1003.8 |
| 20260905235517 | 57 | 0 | 5.0 | 10.0 | 0.00 | 0.09 | 0.09 | 100 | 1003.7 |
| 20260905235017 | 57 | 0 | 6.0 | 13.0 | 0.00 | 0.09 | 0.09 | 100 | 1003.7 |